createdAt,value
2022-09-29T00:02:01.137Z,87002.13
2022-09-29T00:04:46.336Z,87005.41
2022-09-29T00:07:31.076Z,87008.84
2022-09-29T00:10:15.835Z,87015.00
2022-09-29T00:13:00.653Z,87022.97
2022-09-29T00:15:45.362Z,87012.28
2022-09-29T00:18:30.153Z,87020.38
2022-09-29T00:21:14.894Z,87011.47
2022-09-29T00:23:59.647Z,87014.44
2022-09-29T00:26:44.374Z,87009.25
2022-09-29T00:29:29.115Z,86999.78
2022-09-29T00:32:13.833Z,87001.72
2022-09-29T00:34:58.713Z,87000.09
2022-09-29T00:37:43.397Z,86985.94
2022-09-29T00:40:28.305Z,86984.84
2022-09-29T00:43:12.971Z,86991.03
2022-09-29T00:45:57.839Z,86985.69
2022-09-29T00:48:42.622Z,86980.34
2022-09-29T00:51:27.284Z,86979.25
2022-09-29T00:54:12.223Z,86967.72
2022-09-29T00:56:56.920Z,86973.56
2022-09-29T00:59:41.692Z,86981.84
2022-09-29T01:02:26.503Z,86979.91
2022-09-29T01:05:11.345Z,86990.03
2022-09-29T01:07:56.183Z,86983.28
2022-09-29T01:10:41.002Z,86985.22
2022-09-29T01:13:25.764Z,86991.53
2022-09-29T01:16:10.529Z,86995.78
2022-09-29T01:18:55.455Z,87000.44
2022-09-29T01:21:40.271Z,86990.59
2022-09-29T01:24:25.154Z,86991.28
2022-09-29T01:27:10.055Z,86996.81
2022-09-29T01:29:54.874Z,86989.56
2022-09-29T01:32:39.664Z,86993.00
2022-09-29T01:35:24.441Z,86986.41
2022-09-29T01:38:09.354Z,86979.88
2022-09-29T01:40:54.020Z,86995.66
2022-09-29T01:43:39.323Z,86987.28
2022-09-29T01:46:24.088Z,86984.53
2022-09-29T01:49:08.929Z,86973.34
2022-09-29T01:51:53.700Z,86973.75
2022-09-29T01:54:38.479Z,86959.78
2022-09-29T01:57:23.246Z,86975.16
2022-09-29T02:00:08.044Z,86971.41
2022-09-29T02:02:52.955Z,86964.16
2022-09-29T02:05:37.572Z,86963.19
2022-09-29T02:08:22.368Z,86957.44
2022-09-29T02:11:07.045Z,86958.13
2022-09-29T02:13:51.818Z,86956.47
2022-09-29T02:16:36.547Z,86955.94
2022-09-29T02:19:21.320Z,86950.88
2022-09-29T02:22:05.980Z,86957.84
2022-09-29T02:24:50.677Z,86958.53
2022-09-29T02:27:35.435Z,86960.75
2022-09-29T02:30:20.146Z,86956.88
2022-09-29T02:33:04.827Z,86951.00
2022-09-29T02:35:49.626Z,86953.19
2022-09-29T02:38:34.497Z,86948.53
2022-09-29T02:41:19.245Z,86955.66
2022-09-29T02:44:04.068Z,86955.66
2022-09-29T02:46:48.840Z,86949.38
2022-09-29T02:49:33.782Z,86944.28
2022-09-29T02:52:18.480Z,86943.88
2022-09-29T02:55:03.246Z,86937.44
2022-09-29T02:57:47.894Z,86949.91
2022-09-29T03:00:32.780Z,86942.66
2022-09-29T03:03:17.589Z,86940.31
2022-09-29T03:06:02.400Z,86949.38
2022-09-29T03:08:47.109Z,86942.91
2022-09-29T03:11:31.731Z,86940.31
2022-09-29T03:14:16.762Z,86937.69
2022-09-29T03:17:01.400Z,86940.84
2022-09-29T03:19:46.141Z,86937.56
2022-09-29T03:22:30.777Z,86935.78
2022-09-29T03:25:15.655Z,86938.53
2022-09-29T03:28:00.336Z,86939.47
2022-09-29T03:30:45.116Z,86944.53
2022-09-29T03:33:29.689Z,86943.75
2022-09-29T03:36:14.436Z,86948.25
2022-09-29T03:38:59.298Z,86946.47
2022-09-29T03:41:44.029Z,86932.59
2022-09-29T03:44:28.725Z,86942.91
2022-09-29T03:47:13.543Z,86940.44
2022-09-29T03:49:58.224Z,86938.13
2022-09-29T03:52:42.917Z,86943.72
2022-09-29T03:55:27.752Z,86941.38
2022-09-29T03:58:12.596Z,86940.84
2022-09-29T04:00:57.472Z,86947.69
2022-09-29T04:03:42.148Z,86947.81
2022-09-29T04:06:26.912Z,86953.97
2022-09-29T04:09:11.796Z,86940.53
2022-09-29T04:11:56.906Z,86944.09
2022-09-29T04:14:41.845Z,86947.38
2022-09-29T04:17:26.603Z,86946.44
2022-09-29T04:20:11.467Z,86951.38
2022-09-29T04:22:56.237Z,86942.75
2022-09-29T04:25:41.108Z,86945.22
2022-09-29T04:28:25.837Z,86943.19
2022-09-29T04:31:10.751Z,86945.66
2022-09-29T04:33:55.983Z,86939.75
2022-09-29T04:36:40.873Z,86936.34
2022-09-29T04:39:26.242Z,86932.63
2022-09-29T04:42:10.995Z,86936.03
2022-09-29T04:44:55.789Z,86936.34
2022-09-29T04:47:40.509Z,86935.94
2022-09-29T04:50:25.331Z,86940.03
2022-09-29T04:53:10.031Z,86940.31
2022-09-29T04:55:54.853Z,86940.44
2022-09-29T04:58:39.684Z,86940.03
2022-09-29T05:01:24.556Z,86937.97
2022-09-29T05:04:09.870Z,86934.41
2022-09-29T05:06:54.553Z,86939.75
2022-09-29T05:09:39.335Z,86931.94
2022-09-29T05:12:24.054Z,86932.47
2022-09-29T05:15:08.875Z,86943.31
2022-09-29T05:17:53.677Z,86942.22
2022-09-29T05:20:43.746Z,86942.06
2022-09-29T05:23:35.547Z,86943.06
2022-09-29T05:26:20.359Z,86941.28
2022-09-29T05:29:05.028Z,86947.56
2022-09-29T05:31:49.889Z,86948.38
2022-09-29T05:34:34.510Z,86951.16
2022-09-29T05:37:19.175Z,86945.38
2022-09-29T05:40:03.987Z,86947.44
2022-09-29T05:42:48.832Z,86957.69
2022-09-29T05:45:33.750Z,86958.94
2022-09-29T05:48:18.454Z,86955.09
2022-09-29T05:51:03.321Z,86955.50
2022-09-29T05:53:48.141Z,86968.13
2022-09-29T05:56:33.042Z,86962.63
2022-09-29T05:59:17.761Z,86961.81
2022-09-29T06:02:02.532Z,86964.16
2022-09-29T06:04:47.080Z,86972.66
2022-09-29T06:07:31.895Z,86973.63
2022-09-29T06:10:16.711Z,86977.88
2022-09-29T06:13:01.513Z,86983.50
2022-09-29T06:15:46.334Z,86968.97
2022-09-29T06:18:31.038Z,86973.91
2022-09-29T06:21:15.893Z,86978.03
2022-09-29T06:24:00.768Z,86972.97
2022-09-29T06:26:45.649Z,86965.97
2022-09-29T06:29:30.329Z,86967.75
2022-09-29T06:32:15.217Z,86971.31
2022-09-29T06:34:59.882Z,86973.09
2022-09-29T06:37:44.719Z,86978.44
2022-09-29T06:40:29.391Z,86982.16
2022-09-29T06:43:14.122Z,86983.66
2022-09-29T06:45:59.008Z,86975.97
2022-09-29T06:48:43.722Z,86978.56
2022-09-29T06:51:39.462Z,86974.41
2022-09-29T06:54:27.850Z,86980.84
2022-09-29T06:57:12.805Z,86979.34
2022-09-29T06:59:57.513Z,86981.38
2022-09-29T07:02:42.300Z,86983.03
2022-09-29T07:05:26.981Z,86978.13
2022-09-29T07:08:11.778Z,86971.00
2022-09-29T07:10:56.460Z,86985.94
2022-09-29T07:13:41.238Z,86989.91
2022-09-29T07:16:26.160Z,86993.06
2022-09-29T07:19:10.655Z,86993.91
2022-09-29T07:21:55.471Z,86996.25
2022-09-29T07:24:40.136Z,86990.34
2022-09-29T07:27:24.937Z,86995.78
2022-09-29T07:30:09.654Z,86986.22
2022-09-29T07:33:01.332Z,86990.06
2022-09-29T07:35:47.434Z,86990.97
2022-09-29T07:38:32.161Z,86990.13
2022-09-29T07:41:16.964Z,86998.34
2022-09-29T07:44:01.802Z,86999.31
2022-09-29T07:46:46.537Z,87002.19
2022-09-29T07:49:31.407Z,87001.66
2022-09-29T07:52:16.092Z,87009.06
2022-09-29T07:55:00.813Z,87002.91
2022-09-29T07:57:45.578Z,87003.88
2022-09-29T08:00:30.318Z,87003.22
2022-09-29T08:03:14.978Z,87003.09
2022-09-29T08:05:59.735Z,87002.97
2022-09-29T08:08:55.488Z,87009.84
2022-09-29T08:11:44.893Z,87006.00
2022-09-29T08:14:29.651Z,87010.41
2022-09-29T08:17:14.352Z,87012.34
2022-09-29T08:19:59.038Z,87013.59
2022-09-29T08:22:43.667Z,87022.50
2022-09-29T08:25:28.526Z,87024.69
2022-09-29T08:28:20.661Z,87022.25
2022-09-29T08:31:11.579Z,87023.03
2022-09-29T08:33:56.180Z,87024.69
2022-09-29T08:36:40.979Z,87018.50
2022-09-29T08:39:25.739Z,87023.19
2022-09-29T08:42:10.559Z,87020.69
2022-09-29T08:44:58.886Z,87019.00
2022-09-29T08:47:47.996Z,87020.34
2022-09-29T08:50:33.270Z,87025.50
2022-09-29T08:53:27.708Z,87022.28
2022-09-29T08:56:14.073Z,87024.00
2022-09-29T08:58:58.871Z,87029.78
2022-09-29T09:01:43.740Z,87028.78
2022-09-29T09:04:28.514Z,87023.56
2022-09-29T09:07:13.304Z,87029.97
2022-09-29T09:09:58.152Z,87030.53
2022-09-29T09:12:42.927Z,87040.97
2022-09-29T09:15:27.672Z,87035.91
2022-09-29T09:18:12.303Z,87035.88
2022-09-29T09:20:57.198Z,87034.06
2022-09-29T09:23:41.897Z,87042.50
2022-09-29T09:26:26.832Z,87035.41
2022-09-29T09:29:11.526Z,87032.59
2022-09-29T09:31:56.112Z,87041.81
2022-09-29T09:34:44.272Z,87036.03
2022-09-29T09:37:29.494Z,87033.44
2022-09-29T09:40:14.310Z,87030.03
2022-09-29T09:42:58.955Z,87027.94
2022-09-29T09:45:43.866Z,87030.69
2022-09-29T09:48:31.657Z,87030.03
2022-09-29T09:51:16.579Z,87029.91
2022-09-29T09:54:01.392Z,87026.22
2022-09-29T09:56:46.076Z,87029.50
2022-09-29T09:59:30.906Z,87029.50
2022-09-29T10:02:15.797Z,87035.50
2022-09-29T10:05:00.709Z,87031.28
2022-09-29T10:07:45.357Z,87028.66
2022-09-29T10:10:30.090Z,87030.03
2022-09-29T10:13:14.873Z,87022.63
2022-09-29T10:15:59.560Z,87024.13
2022-09-29T10:18:44.557Z,87024.56
2022-09-29T10:21:29.286Z,87022.22
2022-09-29T10:24:14.193Z,87024.69
2022-09-29T10:26:58.923Z,87033.47
2022-09-29T10:29:43.644Z,87026.72
2022-09-29T10:32:28.313Z,87032.22
2022-09-29T10:35:13.169Z,87031.81
2022-09-29T10:37:57.773Z,87035.41
2022-09-29T10:40:43.864Z,87032.34
2022-09-29T10:43:28.840Z,87031.38
2022-09-29T10:46:13.605Z,87024.75
2022-09-29T10:48:58.514Z,87023.59
2022-09-29T10:51:43.195Z,87025.69
2022-09-29T10:54:27.969Z,87024.50
2022-09-29T10:57:12.879Z,87023.88
2022-09-29T10:59:57.664Z,87009.09
2022-09-29T11:02:42.624Z,87007.63
2022-09-29T11:05:27.523Z,87013.09
2022-09-29T11:08:12.439Z,87017.53
2022-09-29T11:10:57.185Z,87016.09
2022-09-29T11:13:42.050Z,87012.13
2022-09-29T11:16:26.659Z,87023.63
2022-09-29T11:19:11.473Z,87017.00
2022-09-29T11:21:56.155Z,87016.53
2022-09-29T11:24:40.965Z,87015.00
2022-09-29T11:27:25.712Z,87016.59
2022-09-29T11:30:10.538Z,87017.41
2022-09-29T11:32:55.298Z,87015.00
2022-09-29T11:35:39.926Z,87009.75
2022-09-29T11:38:24.873Z,87010.69
2022-09-29T11:41:09.686Z,87017.34
2022-09-29T11:43:54.524Z,87016.28
2022-09-29T11:46:39.238Z,87015.47
2022-09-29T11:49:24.077Z,87021.22
2022-09-29T11:52:08.878Z,87022.91
2022-09-29T11:54:53.679Z,87018.59
2022-09-29T11:57:38.512Z,87026.25
2022-09-29T12:00:23.468Z,87017.16
2022-09-29T12:03:08.287Z,87023.09
2022-09-29T12:05:53.443Z,87016.41
2022-09-29T12:08:38.146Z,87012.81
2022-09-29T12:11:47.302Z,87015.50
2022-09-29T12:14:27.875Z,87015.44
2022-09-29T12:17:12.638Z,87019.97
2022-09-29T12:19:57.385Z,87018.13
2022-09-29T12:22:44.886Z,87012.13
2022-09-29T12:25:29.821Z,87022.13
2022-09-29T12:28:16.839Z,87010.69
2022-09-29T12:31:01.865Z,87018.28
2022-09-29T12:33:46.524Z,87016.41
2022-09-29T12:36:31.269Z,87009.06
2022-09-29T12:39:16.016Z,87007.31
2022-09-29T12:42:00.840Z,87012.63
2022-09-29T12:44:45.597Z,87004.63
2022-09-29T12:47:30.335Z,87014.31
2022-09-29T12:50:15.113Z,87012.91
2022-09-29T12:52:59.803Z,87005.34
2022-09-29T12:55:44.529Z,87005.75
2022-09-29T12:58:29.354Z,87011.81
2022-09-29T13:01:14.106Z,87006.88
2022-09-29T13:03:58.922Z,87010.03
2022-09-29T13:06:43.694Z,87009.88
2022-09-29T13:09:28.456Z,87007.78
2022-09-29T13:12:13.207Z,87007.59
2022-09-29T13:14:57.885Z,87012.06
2022-09-29T13:17:45.772Z,87009.09
2022-09-29T13:20:33.747Z,87005.16
2022-09-29T13:23:18.419Z,87009.94
2022-09-29T13:26:03.106Z,87008.00
2022-09-29T13:28:47.680Z,87009.53
2022-09-29T13:31:33.709Z,87001.31
2022-09-29T13:34:19.560Z,87009.41
2022-09-29T13:37:04.589Z,87005.03
2022-09-29T13:39:49.448Z,87012.13
2022-09-29T13:42:34.089Z,87013.22
2022-09-29T13:45:18.930Z,87017.88
2022-09-29T13:48:03.585Z,87020.94
2022-09-29T13:50:48.310Z,87028.03
2022-09-29T13:53:32.914Z,87026.00
2022-09-29T13:56:17.663Z,87026.31
2022-09-29T13:59:02.384Z,87029.06
2022-09-29T14:01:47.255Z,87027.34
2022-09-29T14:04:36.727Z,87028.56
2022-09-29T14:07:22.264Z,87027.84
2022-09-29T14:10:07.142Z,87032.06
2022-09-29T14:12:53.683Z,87032.91
2022-09-29T14:15:38.583Z,87040.38
2022-09-29T14:18:23.487Z,87042.19
2022-09-29T14:21:08.110Z,87040.00
2022-09-29T14:23:52.821Z,87042.38
2022-09-29T14:26:37.446Z,87044.34
2022-09-29T14:29:22.244Z,87051.56
2022-09-29T14:32:06.884Z,87046.81
2022-09-29T14:34:51.613Z,87058.28
2022-09-29T14:37:36.417Z,87054.03
2022-09-29T14:40:21.034Z,87051.63
2022-09-29T14:43:05.748Z,87058.50
2022-09-29T14:45:50.413Z,87056.47
2022-09-29T14:48:35.696Z,87064.19
2022-09-29T14:51:20.477Z,87057.53
2022-09-29T14:54:05.186Z,87058.97
2022-09-29T14:56:49.978Z,87054.22
2022-09-29T14:59:34.751Z,87060.09
2022-09-29T15:02:19.497Z,87053.69
2022-09-29T15:05:04.629Z,87048.91
2022-09-29T15:07:49.481Z,87055.59
2022-09-29T15:10:34.267Z,87051.41
2022-09-29T15:13:18.892Z,87052.84
2022-09-29T15:16:03.695Z,87049.97
2022-09-29T15:18:48.544Z,87054.78
2022-09-29T15:21:33.416Z,87056.00
2022-09-29T15:24:18.230Z,87058.06
2022-09-29T15:27:03.072Z,87059.88
2022-09-29T15:29:48.012Z,87057.63
2022-09-29T15:32:32.751Z,87068.44
2022-09-29T15:35:17.401Z,87066.75
2022-09-29T15:38:02.172Z,87075.00
2022-09-29T15:40:46.844Z,87073.47
2022-09-29T15:43:31.611Z,87078.97
2022-09-29T15:46:16.328Z,87076.91
2022-09-29T15:49:01.417Z,87074.16
2022-09-29T15:51:46.165Z,87081.00
2022-09-29T15:54:31.048Z,87086.91
2022-09-29T15:57:15.768Z,87080.03
2022-09-29T16:00:00.605Z,87087.72
2022-09-29T16:02:45.236Z,87092.00
2022-09-29T16:05:29.940Z,87098.91
2022-09-29T16:08:14.750Z,87100.28
2022-09-29T16:10:59.420Z,87106.38
2022-09-29T16:13:44.073Z,87114.31
2022-09-29T16:16:28.826Z,87114.31
2022-09-29T16:19:14.287Z,87114.06
2022-09-29T16:21:58.881Z,87114.34
2022-09-29T16:24:43.691Z,87118.88
2022-09-29T16:27:28.439Z,87118.06
2022-09-29T16:30:13.207Z,87129.63
2022-09-29T16:32:58.037Z,87123.44
2022-09-29T16:35:42.800Z,87122.94
2022-09-29T16:38:27.483Z,87118.66
2022-09-29T16:41:12.256Z,87120.88
2022-09-29T16:43:57.012Z,87125.28
2022-09-29T16:46:41.741Z,87129.00
2022-09-29T16:49:26.420Z,87126.25
2022-09-29T16:52:11.268Z,87131.63
2022-09-29T16:54:56.113Z,87141.25
2022-09-29T16:57:40.845Z,87138.75
2022-09-29T17:00:25.618Z,87143.97
2022-09-29T17:03:10.434Z,87139.41
2022-09-29T17:05:55.192Z,87139.78
2022-09-29T17:08:40.053Z,87151.50
2022-09-29T17:11:24.717Z,87144.06
2022-09-29T17:14:09.627Z,87151.63
2022-09-29T17:16:54.296Z,87148.91
2022-09-29T17:19:39.028Z,87157.72
2022-09-29T17:22:23.892Z,87155.38
2022-09-29T17:25:08.677Z,87151.78
2022-09-29T17:27:53.499Z,87154.97
2022-09-29T17:30:38.295Z,87161.53
2022-09-29T17:33:23.158Z,87161.53
2022-09-29T17:36:07.996Z,87164.44
2022-09-29T17:38:52.919Z,87167.03
2022-09-29T17:41:37.678Z,87171.16
2022-09-29T17:44:22.549Z,87178.25
2022-09-29T17:47:24.346Z,87186.09
2022-09-29T17:50:12.064Z,87193.09
2022-09-29T17:52:56.818Z,87189.47
2022-09-29T17:55:41.467Z,87197.91
2022-09-29T17:58:26.172Z,87199.50
2022-09-29T18:01:10.820Z,87203.44
2022-09-29T18:03:56.066Z,87206.28
2022-09-29T18:06:40.782Z,87208.56
2022-09-29T18:09:25.685Z,87215.19
2022-09-29T18:12:10.462Z,87211.41
2022-09-29T18:14:55.325Z,87216.09
2022-09-29T18:17:40.336Z,87214.47
2022-09-29T18:20:24.990Z,87218.13
2022-09-29T18:23:09.802Z,87220.72
2022-09-29T18:25:54.543Z,87221.09
2022-09-29T18:28:39.438Z,87227.56
2022-09-29T18:31:24.205Z,87225.88
2022-09-29T18:34:08.943Z,87227.13
2022-09-29T18:36:53.616Z,87227.84
2022-09-29T18:39:38.383Z,87225.66
2022-09-29T18:42:23.086Z,87226.09
2022-09-29T18:45:07.850Z,87227.63
2022-09-29T18:47:52.663Z,87235.72
2022-09-29T18:50:37.370Z,87234.66
2022-09-29T18:53:22.080Z,87239.63
2022-09-29T18:56:06.750Z,87234.81
2022-09-29T18:58:51.599Z,87235.88
2022-09-29T19:01:36.371Z,87240.38
2022-09-29T19:04:21.748Z,87245.91
2022-09-29T19:07:06.484Z,87245.56
2022-09-29T19:09:51.280Z,87247.94
2022-09-29T19:12:36.505Z,87249.19
2022-09-29T19:15:21.211Z,87246.88
2022-09-29T19:18:05.982Z,87250.50
2022-09-29T19:20:50.650Z,87253.00
2022-09-29T19:23:35.469Z,87256.84
2022-09-29T19:26:20.046Z,87268.84
2022-09-29T19:29:04.906Z,87265.38
2022-09-29T19:31:49.619Z,87269.06
2022-09-29T19:34:34.618Z,87273.09
2022-09-29T19:37:19.217Z,87273.25
2022-09-29T19:40:04.045Z,87271.72
2022-09-29T19:42:48.916Z,87279.13
2022-09-29T19:45:33.720Z,87286.34
2022-09-29T19:48:18.436Z,87279.44
2022-09-29T19:51:03.211Z,87281.91
2022-09-29T19:53:49.617Z,87281.69
2022-09-29T19:56:34.840Z,87277.94
2022-09-29T19:59:19.527Z,87282.81
2022-09-29T20:02:04.415Z,87285.16
2022-09-29T20:04:49.593Z,87278.75
2022-09-29T20:07:34.457Z,87288.53
2022-09-29T20:10:19.170Z,87294.75
2022-09-29T20:13:03.980Z,87298.69
2022-09-29T20:15:48.554Z,87299.75
2022-09-29T20:18:33.216Z,87305.13
2022-09-29T20:21:17.859Z,87305.78
2022-09-29T20:24:02.619Z,87307.03
2022-09-29T20:26:47.590Z,87312.00
2022-09-29T20:29:32.635Z,87315.09
2022-09-29T20:32:17.457Z,87319.78
2022-09-29T20:35:02.196Z,87319.03
2022-09-29T20:37:46.948Z,87329.31
2022-09-29T20:40:31.658Z,87328.00
2022-09-29T20:43:16.641Z,87327.50
2022-09-29T20:46:01.329Z,87325.31
2022-09-29T20:48:46.025Z,87341.19
2022-09-29T20:51:31.711Z,87337.94
2022-09-29T20:54:18.994Z,87349.50
2022-09-29T20:57:03.794Z,87340.94
2022-09-29T20:59:48.575Z,87347.97
2022-09-29T21:02:33.394Z,87358.38
2022-09-29T21:05:18.536Z,87363.66
2022-09-29T21:08:03.387Z,87358.56
2022-09-29T21:10:48.171Z,87359.16
2022-09-29T21:13:32.988Z,87359.88
2022-09-29T21:16:17.746Z,87363.03
2022-09-29T21:19:02.455Z,87376.34
2022-09-29T21:21:47.127Z,87372.22
2022-09-29T21:24:31.822Z,87370.22
2022-09-29T21:27:16.648Z,87370.25
2022-09-29T21:30:01.286Z,87375.19
2022-09-29T21:32:46.108Z,87380.53
2022-09-29T21:35:30.849Z,87379.53
2022-09-29T21:38:15.579Z,87378.25
2022-09-29T21:41:00.235Z,87384.09
2022-09-29T21:43:45.134Z,87381.13
2022-09-29T21:46:30.139Z,87385.16
2022-09-29T21:49:15.290Z,87386.94
2022-09-29T21:52:02.195Z,87396.97
2022-09-29T21:54:47.057Z,87393.88
2022-09-29T21:57:31.972Z,87401.00
2022-09-29T22:00:16.669Z,87399.09
2022-09-29T22:03:01.598Z,87398.25
2022-09-29T22:05:46.333Z,87399.34
2022-09-29T22:08:30.994Z,87396.09
2022-09-29T22:11:16.005Z,87393.66
2022-09-29T22:14:00.782Z,87395.25
2022-09-29T22:16:45.629Z,87394.22
2022-09-29T22:19:30.331Z,87404.13
2022-09-29T22:22:15.148Z,87401.72
2022-09-29T22:24:59.860Z,87395.47
2022-09-29T22:27:44.909Z,87400.16
2022-09-29T22:30:29.672Z,87404.13
2022-09-29T22:33:14.505Z,87410.03
2022-09-29T22:35:59.301Z,87404.34
2022-09-29T22:38:44.017Z,87402.97
2022-09-29T22:41:28.947Z,87398.47
2022-09-29T22:44:13.714Z,87401.72
2022-09-29T22:46:58.636Z,87399.81
2022-09-29T22:49:43.159Z,87407.97
2022-09-29T22:52:28.002Z,87410.19
2022-09-29T22:55:12.638Z,87408.28
2022-09-29T22:57:57.430Z,87405.19
2022-09-29T23:00:42.139Z,87405.34
2022-09-29T23:03:27.049Z,87400.81
2022-09-29T23:06:11.729Z,87405.63
2022-09-29T23:08:56.654Z,87406.66
2022-09-29T23:11:41.693Z,87409.41
2022-09-29T23:14:26.544Z,87413.03
2022-09-29T23:17:11.427Z,87415.09
2022-09-29T23:19:56.131Z,87411.13
2022-09-29T23:22:40.952Z,87413.91
2022-09-29T23:25:25.749Z,87417.91
2022-09-29T23:28:10.611Z,87418.81
2022-09-29T23:30:55.356Z,87419.72
2022-09-29T23:33:40.028Z,87422.81
2022-09-29T23:36:24.751Z,87417.13
2022-09-29T23:39:09.403Z,87416.25
2022-09-29T23:41:54.082Z,87422.50
2022-09-29T23:44:38.813Z,87423.53
2022-09-29T23:47:23.676Z,87427.19
2022-09-29T23:50:08.405Z,87427.69
2022-09-29T23:52:53.345Z,87421.44
2022-09-29T23:55:38.028Z,87420.41
2022-09-29T23:58:23.000Z,87420.41
